Time;durP1;ratioP1;P1;durP2;ratioP2;P2;SDS_P1;SDS_P2;PMS_P1;PMS_P2;Temp;Humidity;BMP_temperature;BMP_pressure;BME280_temperature;BME280_humidity;BME280_pressure;Samples;Min_cycle;Max_cycle;Signal;HPM_P1;HPM_P2
2021/08/17 00:00:00;;;;;;;;;16.50;13.50;;;;;;;;5001861;28;8883;-84
2021/08/17 00:02:28;;;;;;;;;16.00;12.75;;;;;;;;4981509;28;8815;-85
2021/08/17 00:04:57;;;;;;;;;16.50;14.75;;;;;;;;5007288;28;8894;-85
2021/08/17 01:25:17;;;;;;;;;18.33;17.00;;;;;;;;4985569;28;9097;-86
2021/08/17 01:27:47;;;;;;;;;14.75;14.25;;;;;;;;4987240;28;9104;-86
2021/08/17 01:30:15;;;;;;;;;18.33;17.67;;;;;;;;4985298;28;8885;-86
2021/08/17 01:32:46;;;;;;;;;17.33;15.33;;;;;;;;4986652;28;9055;-87
2021/08/17 01:35:13;;;;;;;;;15.67;15.00;;;;;;;;4984483;28;8979;-82
2021/08/17 01:37:41;;;;;;;;;17.00;17.00;;;;;;;;4986696;28;9576;-85
2021/08/17 01:40:11;;;;;;;;;18.00;16.00;;;;;;;;4984781;28;9140;-86
2021/08/17 01:42:42;;;;;;;;;12.33;11.67;;;;;;;;4987380;28;9137;-87
2021/08/17 01:45:12;;;;;;;;;17.33;15.67;;;;;;;;4998522;28;9147;-86
2021/08/17 01:47:39;;;;;;;;;17.00;17.00;;;;;;;;4985982;28;9293;-85
2021/08/17 01:50:07;;;;;;;;;17.33;16.00;;;;;;;;4975977;28;9111;-87
2021/08/17 01:52:34;;;;;;;;;19.00;18.67;;;;;;;;4975835;28;9027;-86
2021/08/17 01:55:03;;;;;;;;;24.00;19.00;;;;;;;;4971618;28;9151;-87
2021/08/17 01:57:30;;;;;;;;;19.00;19.00;;;;;;;;4984305;28;9237;-87
2021/08/17 01:59:58;;;;;;;;;14.00;14.00;;;;;;;;4985331;28;9960;-85
2021/08/17 02:02:30;;;;;;;;;23.67;19.00;;;;;;;;4984516;28;9249;-88
2021/08/17 02:04:58;;;;;;;;;22.67;16.67;;;;;;;;4984843;28;9132;-86
2021/08/17 02:07:25;;;;;;;;;19.33;14.00;;;;;;;;4967425;28;9199;-87
2021/08/17 02:09:52;;;;;;;;;10.67;10.67;;;;;;;;4984675;28;9077;-86
2021/08/17 02:12:20;;;;;;;;;17.00;14.33;;;;;;;;4969422;28;9279;-85
2021/08/17 02:14:47;;;;;;;;;23.67;18.33;;;;;;;;4984775;28;9100;-83
2021/08/17 02:17:16;;;;;;;;;17.33;13.67;;;;;;;;4985358;28;9161;-83
2021/08/17 02:19:46;;;;;;;;;21.33;13.00;;;;;;;;4986188;28;9276;-86
2021/08/17 02:22:13;;;;;;;;;19.00;16.33;;;;;;;;4985775;28;9251;-86
2021/08/17 02:24:41;;;;;;;;;17.67;17.67;;;;;;;;4967945;28;9273;-87
2021/08/17 03:10:24;;;;;;;;;21.67;19.67;;;;;;;;4985282;28;9307;-86
2021/08/17 03:12:52;;;;;;;;;19.33;17.67;;;;;;;;4968534;28;9372;-87
2021/08/17 03:15:20;;;;;;;;;20.00;18.33;;;;;;;;4983608;28;9419;-86
2021/08/17 03:17:47;;;;;;;;;22.67;17.67;;;;;;;;4985705;28;10188;-87
2021/08/17 03:20:16;;;;;;;;;16.67;16.67;;;;;;;;4967300;28;9283;-86
2021/08/17 03:22:44;;;;;;;;;22.33;17.00;;;;;;;;4985971;28;9283;-86
2021/08/17 03:25:13;;;;;;;;;17.33;17.33;;;;;;;;4968041;28;9294;-87
2021/08/17 03:27:42;;;;;;;;;17.33;17.33;;;;;;;;4984937;28;9382;-87
2021/08/17 03:30:12;;;;;;;;;20.33;17.33;;;;;;;;4975358;28;9375;-86
2021/08/17 03:32:40;;;;;;;;;20.25;20.25;;;;;;;;4984546;28;9529;-86
2021/08/17 03:35:08;;;;;;;;;16.25;12.00;;;;;;;;4985954;28;9593;-85
2021/08/17 03:37:37;;;;;;;;;21.00;19.75;;;;;;;;4983978;28;9503;-86
2021/08/17 03:40:06;;;;;;;;;20.00;20.00;;;;;;;;4985720;28;9593;-85
2021/08/17 03:42:35;;;;;;;;;21.75;21.25;;;;;;;;4984661;28;9499;-87
2021/08/17 03:45:05;;;;;;;;;21.75;18.25;;;;;;;;4983223;28;9504;-87
2021/08/17 03:47:35;;;;;;;;;16.00;16.00;;;;;;;;4983882;28;9497;-85
2021/08/17 03:50:02;;;;;;;;;18.33;18.33;;;;;;;;4970007;28;9577;-88
2021/08/17 03:52:30;;;;;;;;;19.00;17.00;;;;;;;;4984663;28;10351;-86
2021/08/17 03:54:57;;;;;;;;;24.75;21.50;;;;;;;;4982944;28;9532;-86
2021/08/17 03:57:25;;;;;;;;;19.25;19.25;;;;;;;;4984932;28;9611;-86
2021/08/17 03:59:53;;;;;;;;;19.50;19.50;;;;;;;;4987252;28;9522;-87
2021/08/17 04:02:22;;;;;;;;;18.00;17.25;;;;;;;;4986707;28;9502;-85
2021/08/17 04:11:49;;;;;;;;;14.25;14.25;;;;;;;;4973977;28;9608;-86
2021/08/17 04:14:16;;;;;;;;;20.50;20.00;;;;;;;;4988726;28;9592;-86
2021/08/17 04:16:43;;;;;;;;;18.00;18.00;;;;;;;;4969915;28;10338;-86
2021/08/17 04:19:12;;;;;;;;;23.00;22.75;;;;;;;;4971365;28;9523;-87
2021/08/17 04:21:40;;;;;;;;;18.75;18.50;;;;;;;;4984685;28;9765;-87
2021/08/17 04:24:07;;;;;;;;;25.75;18.50;;;;;;;;4965916;28;9598;-86
2021/08/17 04:26:34;;;;;;;;;22.67;20.00;;;;;;;;4988689;28;9597;-86
2021/08/17 04:29:02;;;;;;;;;15.67;15.67;;;;;;;;4987107;28;9424;-86
2021/08/17 04:31:30;;;;;;;;;20.33;19.00;;;;;;;;4987999;28;9212;-85
2021/08/17 04:33:57;;;;;;;;;17.67;17.00;;;;;;;;4987059;28;9424;-86
2021/08/17 04:36:26;;;;;;;;;23.50;19.75;;;;;;;;4987892;28;9493;-85
2021/08/17 04:38:53;;;;;;;;;16.33;16.33;;;;;;;;4986906;28;9522;-87
2021/08/17 04:41:20;;;;;;;;;21.00;17.00;;;;;;;;4987645;28;9372;-85
2021/08/17 04:43:50;;;;;;;;;18.33;18.33;;;;;;;;4983245;28;9449;-87
2021/08/17 04:46:18;;;;;;;;;17.67;12.00;;;;;;;;4985578;28;9411;-87
2021/08/17 04:48:56;;;;;;;;;;;;;;;;;;;;;
2021/08/17 04:58:13;;;;;;;;;22.67;18.67;;;;;;;;4984316;28;9231;-87
2021/08/17 05:00:45;;;;;;;;;18.75;17.75;;;;;;;;4986967;28;9375;-88
2021/08/17 05:03:12;;;;;;;;;24.33;16.67;;;;;;;;4987837;28;9454;-87
2021/08/17 05:05:40;;;;;;;;;10.00;10.00;;;;;;;;4986995;28;9381;-86
2021/08/17 05:08:08;;;;;;;;;17.00;15.25;;;;;;;;4986554;28;9456;-86
2021/08/17 05:10:36;;;;;;;;;19.75;18.00;;;;;;;;4987328;28;9441;-87
2021/08/17 05:13:05;;;;;;;;;14.00;14.00;;;;;;;;4984931;28;9413;-87
2021/08/17 05:15:35;;;;;;;;;16.33;14.33;;;;;;;;4970056;28;9326;-86
2021/08/17 05:18:03;;;;;;;;;21.33;17.00;;;;;;;;4986749;28;9358;-86
2021/08/17 05:20:31;;;;;;;;;16.67;16.67;;;;;;;;4987747;28;9214;-86
2021/08/17 05:22:58;;;;;;;;;24.33;23.67;;;;;;;;4987134;28;9277;-87
2021/08/17 05:25:27;;;;;;;;;19.33;17.00;;;;;;;;4985227;28;9397;-87
2021/08/17 05:27:55;;;;;;;;;20.00;18.33;;;;;;;;4987275;28;9179;-86
2021/08/17 05:30:22;;;;;;;;;19.67;16.33;;;;;;;;4985635;28;9186;-87
2021/08/17 05:32:52;;;;;;;;;18.33;17.00;;;;;;;;4987187;28;9207;-87
2021/08/17 05:35:20;;;;;;;;;20.00;18.67;;;;;;;;4986211;28;9107;-86
2021/08/17 05:37:47;;;;;;;;;18.67;17.33;;;;;;;;4969673;28;9908;-86
2021/08/17 05:40:15;;;;;;;;;27.67;21.33;;;;;;;;4968150;28;9096;-86
2021/08/17 05:42:42;;;;;;;;;18.33;16.33;;;;;;;;4986583;28;9265;-87
2021/08/17 05:45:11;;;;;;;;;16.67;13.00;;;;;;;;4987428;28;9072;-86
2021/08/17 05:47:43;;;;;;;;;17.33;17.00;;;;;;;;4985246;28;8991;-87
2021/08/17 05:50:13;;;;;;;;;27.00;24.00;;;;;;;;4986905;28;8949;-85
2021/08/17 05:52:40;;;;;;;;;18.00;17.67;;;;;;;;4986120;28;9198;-86
2021/08/17 05:55:09;;;;;;;;;15.67;14.67;;;;;;;;4986972;28;8974;-85
2021/08/17 05:57:37;;;;;;;;;24.00;22.33;;;;;;;;4985968;28;8945;-87
2021/08/17 06:00:04;;;;;;;;;19.33;16.00;;;;;;;;4985544;28;9315;-87
2021/08/17 06:02:31;;;;;;;;;22.00;22.00;;;;;;;;4986395;28;8964;-88
2021/08/17 06:04:59;;;;;;;;;24.33;20.00;;;;;;;;4984652;28;9299;-86
2021/08/17 06:07:27;;;;;;;;;21.25;20.00;;;;;;;;4986358;28;9200;-87
2021/08/17 06:09:55;;;;;;;;;21.50;18.75;;;;;;;;4984803;28;8865;-87
2021/08/17 06:12:23;;;;;;;;;16.33;16.33;;;;;;;;4986798;28;8869;-86
2021/08/17 06:14:53;;;;;;;;;17.33;13.33;;;;;;;;4985791;28;8967;-87
2021/08/17 06:17:20;;;;;;;;;23.25;16.50;;;;;;;;4985412;28;8977;-85
2021/08/17 06:19:47;;;;;;;;;18.75;14.00;;;;;;;;4986430;28;9008;-86
2021/08/17 06:22:17;;;;;;;;;18.00;18.00;;;;;;;;4964463;28;8895;-86
2021/08/17 06:24:46;;;;;;;;;20.25;16.50;;;;;;;;4955862;28;8915;-86
2021/08/17 06:27:15;;;;;;;;;18.50;18.50;;;;;;;;4968530;28;8889;-84
2021/08/17 06:29:43;;;;;;;;;19.50;17.50;;;;;;;;4969818;28;8873;-86
2021/08/17 06:32:10;;;;;;;;;19.75;17.75;;;;;;;;4965906;28;8815;-85
2021/08/17 06:34:37;;;;;;;;;16.75;14.00;;;;;;;;4985227;28;8891;-87
2021/08/17 06:37:05;;;;;;;;;14.25;12.75;;;;;;;;4983730;28;8870;-84
2021/08/17 06:39:32;;;;;;;;;18.50;14.75;;;;;;;;4974894;28;8913;-85
2021/08/17 06:42:01;;;;;;;;;18.75;16.50;;;;;;;;4985285;28;8867;-84
2021/08/17 06:44:28;;;;;;;;;22.50;18.50;;;;;;;;4983831;28;8915;-84
2021/08/17 06:46:56;;;;;;;;;18.75;17.00;;;;;;;;4968195;28;8865;-85
2021/08/17 06:49:23;;;;;;;;;13.50;13.50;;;;;;;;4983578;28;8930;-87
2021/08/17 06:51:50;;;;;;;;;14.75;14.75;;;;;;;;4984734;28;8873;-86
2021/08/17 06:54:17;;;;;;;;;18.75;18.00;;;;;;;;4983963;28;8891;-86
2021/08/17 06:56:45;;;;;;;;;18.00;17.00;;;;;;;;4982367;28;8865;-85
2021/08/17 06:59:13;;;;;;;;;23.50;15.25;;;;;;;;4985723;28;8853;-85
2021/08/17 07:01:41;;;;;;;;;11.25;9.75;;;;;;;;4966914;28;8830;-87
2021/08/17 07:04:08;;;;;;;;;20.25;19.25;;;;;;;;4986092;28;8880;-85
2021/08/17 07:06:36;;;;;;;;;17.00;13.00;;;;;;;;4969184;28;8913;-85
2021/08/17 07:09:04;;;;;;;;;14.00;14.00;;;;;;;;4985806;28;8910;-86
2021/08/17 07:11:31;;;;;;;;;19.25;18.25;;;;;;;;4984226;28;8911;-86
2021/08/17 07:13:58;;;;;;;;;5.00;4.00;;;;;;;;4985271;28;8862;-86
2021/08/17 07:16:27;;;;;;;;;17.00;16.00;;;;;;;;4985538;28;8955;-86
2021/08/17 07:18:54;;;;;;;;;16.75;16.75;;;;;;;;4984998;28;8869;-86
2021/08/17 07:21:21;;;;;;;;;11.00;11.00;;;;;;;;4985602;28;8899;-86
2021/08/17 07:23:49;;;;;;;;;27.00;14.25;;;;;;;;4984613;28;8877;-84
2021/08/17 07:26:18;;;;;;;;;17.50;13.75;;;;;;;;4968205;28;8865;-85
2021/08/17 07:28:48;;;;;;;;;21.75;19.00;;;;;;;;4983646;28;8973;-85
2021/08/17 07:31:15;;;;;;;;;17.00;15.50;;;;;;;;4967238;28;8807;-85
2021/08/17 07:33:44;;;;;;;;;19.50;16.75;;;;;;;;4987678;28;8902;-86
2021/08/17 07:36:12;;;;;;;;;21.50;14.50;;;;;;;;4989378;28;8881;-84
2021/08/17 07:38:41;;;;;;;;;17.75;17.75;;;;;;;;4988000;28;8865;-83
2021/08/17 07:41:11;;;;;;;;;19.75;15.50;;;;;;;;4986225;28;8937;-85
2021/08/17 07:43:38;;;;;;;;;19.75;18.25;;;;;;;;4987850;28;8885;-83
2021/08/17 07:46:09;;;;;;;;;20.00;16.50;;;;;;;;4980314;28;9018;-85
2021/08/17 07:48:37;;;;;;;;;19.25;14.50;;;;;;;;4968137;28;8873;-85
2021/08/17 07:57:23;;;;;;;;;16.50;13.75;;;;;;;;4923061;28;8858;-84
2021/08/17 07:59:50;;;;;;;;;16.00;13.75;;;;;;;;4936808;29;8917;-82
2021/08/17 08:02:18;;;;;;;;;15.50;14.00;;;;;;;;4938416;28;8826;-82
2021/08/17 08:04:45;;;;;;;;;16.00;15.75;;;;;;;;4940725;28;8873;-82
2021/08/17 08:07:14;;;;;;;;;19.75;17.25;;;;;;;;4936667;29;8883;-82
2021/08/17 08:09:41;;;;;;;;;18.75;15.25;;;;;;;;4927851;29;8911;-83
2021/08/17 08:12:10;;;;;;;;;14.25;14.25;;;;;;;;4936204;28;8988;-83
2021/08/17 08:14:38;;;;;;;;;14.75;13.50;;;;;;;;4939608;28;8866;-84
2021/08/17 08:23:43;;;;;;;;;16.75;15.75;;;;;;;;4877760;29;8904;-84
2021/08/17 08:26:11;;;;;;;;;16.00;14.25;;;;;;;;4889246;29;8872;-84
2021/08/17 08:28:38;;;;;;;;;14.50;11.75;;;;;;;;4899176;29;8924;-85
2021/08/17 08:31:05;;;;;;;;;14.25;9.25;;;;;;;;4929357;28;8864;-84
2021/08/17 08:33:33;;;;;;;;;18.25;12.25;;;;;;;;4987229;28;8862;-84
2021/08/17 08:36:00;;;;;;;;;14.75;12.75;;;;;;;;4988276;28;8863;-84
2021/08/17 08:38:27;;;;;;;;;17.00;15.25;;;;;;;;4986265;28;8904;-84
2021/08/17 08:40:56;;;;;;;;;15.50;15.50;;;;;;;;4970739;28;8875;-85
2021/08/17 08:43:24;;;;;;;;;10.25;10.25;;;;;;;;4986744;28;8863;-84
2021/08/17 08:45:52;;;;;;;;;9.00;9.00;;;;;;;;4986324;28;8882;-85
2021/08/17 08:48:22;;;;;;;;;12.50;10.25;;;;;;;;4986441;28;8937;-84
2021/08/17 08:50:50;;;;;;;;;9.75;9.75;;;;;;;;4985371;28;8886;-85
2021/08/17 08:53:19;;;;;;;;;13.25;11.75;;;;;;;;4987047;28;9028;-85
2021/08/17 08:58:44;;;;;;;;;17.50;13.75;;;;;;;;4983731;28;8847;-79
2021/08/17 09:01:12;;;;;;;;;11.00;11.00;;;;;;;;4986067;28;8911;-89
2021/08/17 09:03:43;;;;;;;;;12.50;12.50;;;;;;;;4982771;28;8987;-88
2021/08/17 09:06:22;;;;;;;;;13.00;11.00;;;;;;;;4970067;28;8953;-87
2021/08/17 09:09:04;;;;;;;;;7.00;7.00;;;;;;;;4981952;28;8868;-86
2021/08/17 09:11:35;;;;;;;;;12.25;11.50;;;;;;;;4984913;28;8872;-89
2021/08/17 09:14:19;;;;;;;;;19.75;15.75;;;;;;;;4969034;28;8869;-88
2021/08/17 09:16:48;;;;;;;;;14.00;11.75;;;;;;;;4987115;28;8858;-86
2021/08/17 09:19:29;;;;;;;;;19.50;14.00;;;;;;;;4985155;28;8842;-87
2021/08/17 09:22:03;;;;;;;;;11.25;8.75;;;;;;;;4980096;28;8870;-86
2021/08/17 09:24:32;;;;;;;;;12.00;10.00;;;;;;;;4982243;28;8881;-85
2021/08/17 09:27:01;;;;;;;;;19.25;11.50;;;;;;;;4985509;28;8906;-86
2021/08/17 09:29:33;;;;;;;;;13.00;12.50;;;;;;;;4980459;28;8887;-88
2021/08/17 09:32:04;;;;;;;;;12.50;12.50;;;;;;;;4986707;28;8858;-87
2021/08/17 09:34:34;;;;;;;;;11.00;9.50;;;;;;;;4988396;28;8953;-90
2021/08/17 09:37:04;;;;;;;;;15.75;13.50;;;;;;;;4987948;28;9746;-89
2021/08/17 09:39:37;;;;;;;;;10.25;10.00;;;;;;;;4985713;28;8885;-88
2021/08/17 09:42:14;;;;;;;;;14.25;14.25;;;;;;;;4984712;28;9025;-88
2021/08/17 09:44:44;;;;;;;;;19.25;13.75;;;;;;;;4969322;28;8871;-88
2021/08/17 09:47:12;;;;;;;;;14.00;12.50;;;;;;;;4967035;28;8875;-87
2021/08/17 09:49:41;;;;;;;;;14.50;13.50;;;;;;;;4985599;28;8858;-89
2021/08/17 09:52:14;;;;;;;;;15.25;14.75;;;;;;;;4988805;28;9014;-86
2021/08/17 09:54:46;;;;;;;;;14.40;12.60;;;;;;;;4989015;28;8971;-86
2021/08/17 09:57:13;;;;;;;;;7.75;7.75;;;;;;;;4986918;28;9772;-87
2021/08/17 09:59:44;;;;;;;;;15.00;13.00;;;;;;;;4987032;28;10763;-90
2021/08/17 10:02:14;;;;;;;;;17.75;16.75;;;;;;;;4985287;28;8831;-89
2021/08/17 10:04:51;;;;;;;;;13.75;13.75;;;;;;;;4984162;28;8870;-94
2021/08/17 10:07:20;;;;;;;;;17.75;17.25;;;;;;;;4990341;28;8842;-90
2021/08/17 10:09:47;;;;;;;;;17.75;16.00;;;;;;;;4985380;28;9029;-89
2021/08/17 10:12:14;;;;;;;;;19.50;16.00;;;;;;;;4987913;28;8860;-92
2021/08/17 10:14:43;;;;;;;;;13.25;10.50;;;;;;;;4984798;28;8847;-90
2021/08/17 10:17:12;;;;;;;;;7.75;7.00;;;;;;;;4967544;28;9715;-91
2021/08/17 10:19:39;;;;;;;;;10.75;10.75;;;;;;;;4986553;28;8875;-82
2021/08/17 10:22:08;;;;;;;;;11.40;11.40;;;;;;;;4987193;28;8904;-88
2021/08/17 10:24:39;;;;;;;;;10.20;10.20;;;;;;;;4987085;28;8840;-86
2021/08/17 10:27:18;;;;;;;;;13.00;12.80;;;;;;;;4984277;28;8889;-86
2021/08/17 10:30:19;;;;;;;;;10.60;10.60;;;;;;;;4965336;28;8888;-86
2021/08/17 10:32:54;;;;;;;;;10.60;10.60;;;;;;;;4948847;28;8811;-82
2021/08/17 10:35:56;;;;;;;;;17.40;15.60;;;;;;;;4977238;28;8904;-88
2021/08/17 10:38:50;;;;;;;;;19.60;14.60;;;;;;;;4922967;29;8907;-82
2021/08/17 10:41:43;;;;;;;;;8.25;7.25;;;;;;;;4869585;29;9083;-84
2021/08/17 10:44:16;;;;;;;;;13.25;13.25;;;;;;;;4973575;28;8890;-85
2021/08/17 10:47:03;;;;;;;;;16.25;14.75;;;;;;;;4985111;28;8909;-86
2021/08/17 10:49:45;;;;;;;;;14.25;13.25;;;;;;;;4983850;28;8867;-85
2021/08/17 10:52:27;;;;;;;;;12.00;9.00;;;;;;;;4984832;28;8863;-87
2021/08/17 10:55:26;;;;;;;;;9.00;9.00;;;;;;;;4981177;28;9445;-88
2021/08/17 11:00:52;;;;;;;;;11.25;11.00;;;;;;;;4950176;28;8799;-90
2021/08/17 11:03:44;;;;;;;;;10.00;10.00;;;;;;;;4985126;28;9000;-89
2021/08/17 11:06:12;;;;;;;;;13.25;11.00;;;;;;;;4985382;28;8858;-90
2021/08/17 11:08:41;;;;;;;;;11.75;10.50;;;;;;;;4987133;28;8878;-88
2021/08/17 11:11:22;;;;;;;;;9.00;9.00;;;;;;;;4989387;28;8952;-90
2021/08/17 11:14:11;;;;;;;;;14.75;11.25;;;;;;;;4990576;28;8870;-85
2021/08/17 11:16:57;;;;;;;;;13.00;11.75;;;;;;;;4967596;28;8891;-94
2021/08/17 11:19:28;;;;;;;;;12.00;11.75;;;;;;;;4988808;28;8885;-91
2021/08/17 11:21:57;;;;;;;;;13.00;13.00;;;;;;;;4988261;28;8969;-87
2021/08/17 11:24:26;;;;;;;;;15.25;13.25;;;;;;;;4988333;28;8932;-89
2021/08/17 11:26:56;;;;;;;;;12.50;12.50;;;;;;;;4955110;28;8871;-90
2021/08/17 11:29:40;;;;;;;;;15.00;13.50;;;;;;;;4987247;28;8979;-87
2021/08/17 11:32:10;;;;;;;;;19.00;17.75;;;;;;;;4983647;28;8937;-85
2021/08/17 11:34:40;;;;;;;;;17.00;14.50;;;;;;;;4987484;28;8870;-85
2021/08/17 11:37:09;;;;;;;;;16.00;12.75;;;;;;;;4988833;28;8966;-87
2021/08/17 11:39:41;;;;;;;;;14.00;13.50;;;;;;;;4988014;28;8839;-90
2021/08/17 11:42:13;;;;;;;;;14.75;14.00;;;;;;;;4971472;28;8893;-88
2021/08/17 11:44:42;;;;;;;;;20.75;19.25;;;;;;;;4984528;28;8900;-91
2021/08/17 11:47:14;;;;;;;;;13.75;13.25;;;;;;;;4987514;28;8866;-90
2021/08/17 11:49:44;;;;;;;;;16.75;15.75;;;;;;;;4988601;28;8989;-91
2021/08/17 11:52:14;;;;;;;;;18.25;15.00;;;;;;;;4986502;28;8940;-89
2021/08/17 11:54:49;;;;;;;;;14.25;13.25;;;;;;;;4986418;28;9013;-94
2021/08/17 11:57:21;;;;;;;;;18.75;16.25;;;;;;;;4988546;28;8902;-92
2021/08/17 11:59:50;;;;;;;;;14.00;12.50;;;;;;;;4987663;28;8898;-91
2021/08/17 12:02:40;;;;;;;;;16.50;14.00;;;;;;;;4969326;28;8833;-89
2021/08/17 12:05:11;;;;;;;;;9.75;9.75;;;;;;;;4984781;28;9008;-87
2021/08/17 12:10:34;;;;;;;;;11.00;9.00;;;;;;;;4943571;28;8870;-91
2021/08/17 12:13:03;;;;;;;;;12.20;10.40;;;;;;;;4988472;28;8924;-88
2021/08/17 12:15:38;;;;;;;;;9.00;8.20;;;;;;;;4991930;28;9009;-92
2021/08/17 12:18:07;;;;;;;;;9.80;9.80;;;;;;;;4985388;28;8882;-88
2021/08/17 12:20:38;;;;;;;;;9.60;9.20;;;;;;;;4991925;28;8854;-91
2021/08/17 12:23:19;;;;;;;;;9.20;9.20;;;;;;;;4990054;28;9620;-91
2021/08/17 12:25:47;;;;;;;;;10.60;10.00;;;;;;;;4988285;28;8866;-89
2021/08/17 12:28:31;;;;;;;;;9.00;9.00;;;;;;;;4976173;28;8879;-92
2021/08/17 12:31:13;;;;;;;;;11.00;9.40;;;;;;;;4976080;28;8843;-93
2021/08/17 12:33:50;;;;;;;;;7.80;7.80;;;;;;;;4990068;28;8909;-91
2021/08/17 12:49:17;;;;;;;;;9.00;9.00;;;;;;;;5376085;23;8902;-90
2021/08/17 12:51:45;;;;;;;;;9.00;9.00;;;;;;;;4959124;28;8906;-92
2021/08/17 12:54:12;;;;;;;;;12.75;10.00;;;;;;;;4992004;28;8882;-92
2021/08/17 12:56:40;;;;;;;;;11.00;9.25;;;;;;;;4991807;28;8977;-92
2021/08/17 12:59:07;;;;;;;;;10.00;10.00;;;;;;;;4976356;28;9068;-92
2021/08/17 13:01:34;;;;;;;;;11.50;10.50;;;;;;;;4994781;28;9601;-91
2021/08/17 13:04:01;;;;;;;;;10.40;10.40;;;;;;;;4990160;28;8865;-90
2021/08/17 13:06:30;;;;;;;;;10.00;10.00;;;;;;;;4983155;28;8893;-91
2021/08/17 13:08:58;;;;;;;;;10.20;7.00;;;;;;;;4990655;28;8898;-93
2021/08/17 13:11:25;;;;;;;;;8.20;8.20;;;;;;;;4990055;28;8975;-91
2021/08/17 13:13:52;;;;;;;;;8.40;8.40;;;;;;;;4987749;28;9006;-89
2021/08/17 13:16:20;;;;;;;;;11.20;10.80;;;;;;;;4993158;28;8897;-88
2021/08/17 13:18:48;;;;;;;;;7.40;7.40;;;;;;;;4941341;28;8879;-94
2021/08/17 13:21:16;;;;;;;;;8.20;8.20;;;;;;;;4966511;28;9029;-92
2021/08/17 13:23:45;;;;;;;;;10.60;8.20;;;;;;;;4988233;28;8880;-92
2021/08/17 13:26:13;;;;;;;;;7.60;7.60;;;;;;;;4971512;28;9655;-90
2021/08/17 13:28:40;;;;;;;;;7.20;7.20;;;;;;;;4995380;28;8873;-91
2021/08/17 13:31:09;;;;;;;;;7.00;7.00;;;;;;;;4995605;28;8986;-94
2021/08/17 13:33:37;;;;;;;;;9.25;8.50;;;;;;;;4988835;28;8889;-92
2021/08/17 13:36:05;;;;;;;;;9.25;9.25;;;;;;;;4986342;28;8885;-92
2021/08/17 13:38:32;;;;;;;;;4.75;4.75;;;;;;;;4981848;28;8853;-91
2021/08/17 13:41:01;;;;;;;;;7.00;7.00;;;;;;;;4985188;28;9019;-90
2021/08/17 13:43:28;;;;;;;;;7.25;6.00;;;;;;;;4970311;28;8902;-92
2021/08/17 13:45:58;;;;;;;;;6.00;6.00;;;;;;;;4987002;28;8917;-88
2021/08/17 13:48:25;;;;;;;;;5.50;5.50;;;;;;;;4986489;28;8972;-90
2021/08/17 13:50:53;;;;;;;;;4.00;4.00;;;;;;;;4985421;28;8947;-89
2021/08/17 13:53:20;;;;;;;;;5.00;5.00;;;;;;;;4973530;28;8912;-89
2021/08/17 13:55:47;;;;;;;;;5.50;5.50;;;;;;;;4986957;28;8995;-92
2021/08/17 13:58:16;;;;;;;;;4.00;4.00;;;;;;;;4986883;28;8891;-88
2021/08/17 14:00:43;;;;;;;;;3.60;3.60;;;;;;;;4986151;28;8794;-89
2021/08/17 14:03:12;;;;;;;;;3.80;2.00;;;;;;;;4987153;28;8894;-91
2021/08/17 14:05:40;;;;;;;;;4.00;4.00;;;;;;;;4985192;28;8879;-92
2021/08/17 14:08:07;;;;;;;;;4.00;4.00;;;;;;;;4977682;28;8987;-92
2021/08/17 14:10:34;;;;;;;;;3.60;3.60;;;;;;;;4987575;28;9020;-94
2021/08/17 14:13:02;;;;;;;;;4.00;4.00;;;;;;;;4971938;28;8866;-92
2021/08/17 14:15:30;;;;;;;;;3.80;3.80;;;;;;;;4986523;28;8911;-86
2021/08/17 14:17:58;;;;;;;;;2.00;2.00;;;;;;;;4985804;28;8869;-89
2021/08/17 14:20:25;;;;;;;;;3.40;3.40;;;;;;;;4967865;28;8917;-85
2021/08/17 14:23:02;;;;;;;;;2.20;2.20;;;;;;;;4968855;28;8898;-92
2021/08/17 14:25:29;;;;;;;;;2.60;2.60;;;;;;;;4983918;28;9668;-90
2021/08/17 14:27:57;;;;;;;;;3.80;3.80;;;;;;;;4985213;28;8960;-86
2021/08/17 14:30:24;;;;;;;;;4.80;4.80;;;;;;;;4984366;28;8773;-89
2021/08/17 14:32:53;;;;;;;;;2.60;2.00;;;;;;;;4984191;28;8873;-90
2021/08/17 14:35:20;;;;;;;;;4.00;2.00;;;;;;;;4985323;28;8881;-92
2021/08/17 14:43:50;;;;;;;;;4.60;4.60;;;;;;;;4944754;28;8826;-91
2021/08/17 14:46:18;;;;;;;;;5.00;5.00;;;;;;;;4943970;28;8873;-90
2021/08/17 14:48:47;;;;;;;;;7.00;3.20;;;;;;;;4931231;28;8963;-92
2021/08/17 14:51:14;;;;;;;;;5.80;5.00;;;;;;;;4982274;28;8915;-88
2021/08/17 14:53:42;;;;;;;;;4.75;4.75;;;;;;;;4952412;28;8884;-89
2021/08/17 14:56:09;;;;;;;;;6.50;6.50;;;;;;;;4985492;28;8857;-89
2021/08/17 14:58:37;;;;;;;;;5.00;5.00;;;;;;;;4984644;28;8873;-90
2021/08/17 15:01:05;;;;;;;;;4.50;4.50;;;;;;;;4984320;28;8834;-91
2021/08/17 15:03:32;;;;;;;;;7.25;6.75;;;;;;;;4984272;28;8987;-91
2021/08/17 15:06:02;;;;;;;;;4.00;4.00;;;;;;;;4983889;28;8853;-91
2021/08/17 15:08:29;;;;;;;;;6.00;6.00;;;;;;;;4983414;28;9023;-87
2021/08/17 15:10:56;;;;;;;;;3.50;3.00;;;;;;;;4984916;28;8881;-93
2021/08/17 15:13:23;;;;;;;;;5.75;4.00;;;;;;;;4977839;28;8907;-87
2021/08/17 15:15:51;;;;;;;;;5.00;5.00;;;;;;;;4983039;28;8903;-87
2021/08/17 15:18:19;;;;;;;;;9.00;7.50;;;;;;;;4981039;28;8897;-88
2021/08/17 15:20:46;;;;;;;;;6.75;6.00;;;;;;;;4984556;28;8877;-87
2021/08/17 15:23:15;;;;;;;;;6.25;6.25;;;;;;;;4983664;28;8911;-89
2021/08/17 15:25:43;;;;;;;;;5.75;5.75;;;;;;;;4981549;28;8904;-87
2021/08/17 15:28:10;;;;;;;;;6.50;6.50;;;;;;;;4985147;28;8883;-89
2021/08/17 15:30:37;;;;;;;;;6.75;6.75;;;;;;;;4982572;28;10087;-87
2021/08/17 15:33:08;;;;;;;;;6.25;6.25;;;;;;;;4983702;28;8889;-91
2021/08/17 15:35:36;;;;;;;;;7.50;7.50;;;;;;;;4982830;28;8928;-87
2021/08/17 15:38:04;;;;;;;;;7.75;7.75;;;;;;;;4984271;28;8858;-84
2021/08/17 15:40:33;;;;;;;;;7.75;7.75;;;;;;;;4984305;28;8865;-92
2021/08/17 15:43:01;;;;;;;;;8.75;8.75;;;;;;;;4984264;28;8873;-91
2021/08/17 15:45:29;;;;;;;;;8.50;8.50;;;;;;;;4981918;28;9004;-91
2021/08/17 15:47:56;;;;;;;;;6.50;6.50;;;;;;;;4980953;28;8889;-91
2021/08/17 15:50:24;;;;;;;;;7.50;7.50;;;;;;;;4984525;28;8955;-91
2021/08/17 15:52:52;;;;;;;;;7.00;7.00;;;;;;;;4982908;28;8885;-90
2021/08/17 15:55:20;;;;;;;;;7.00;7.00;;;;;;;;4988153;28;8915;-88
2021/08/17 15:57:49;;;;;;;;;3.00;2.00;;;;;;;;4983430;28;8885;-90
2021/08/17 16:00:18;;;;;;;;;6.50;6.00;;;;;;;;4985954;28;8877;-88
2021/08/17 16:02:45;;;;;;;;;9.00;9.00;;;;;;;;4987342;28;8841;-90
2021/08/17 16:05:15;;;;;;;;;11.25;10.75;;;;;;;;4986143;28;8881;-86
2021/08/17 16:07:45;;;;;;;;;9.50;9.00;;;;;;;;4989003;28;8909;-90
2021/08/17 16:10:13;;;;;;;;;11.00;11.00;;;;;;;;4987444;28;8865;-86
2021/08/17 16:12:42;;;;;;;;;11.00;11.00;;;;;;;;4988179;28;8881;-88
2021/08/17 16:15:12;;;;;;;;;9.75;9.75;;;;;;;;4985836;28;9014;-90
2021/08/17 16:17:40;;;;;;;;;10.25;9.00;;;;;;;;4986925;28;8869;-89
2021/08/17 16:20:09;;;;;;;;;10.75;10.75;;;;;;;;4987275;28;8889;-89
2021/08/17 16:22:36;;;;;;;;;9.75;8.25;;;;;;;;4984196;28;8903;-88
2021/08/17 16:25:05;;;;;;;;;9.00;9.00;;;;;;;;4986034;28;8995;-90
2021/08/17 16:27:33;;;;;;;;;9.25;7.50;;;;;;;;4986728;28;8866;-89
2021/08/17 16:30:01;;;;;;;;;12.50;10.00;;;;;;;;4985096;28;8896;-90
2021/08/17 16:32:30;;;;;;;;;8.75;8.75;;;;;;;;4985488;28;8801;-85
2021/08/17 16:35:04;;;;;;;;;8.75;8.75;;;;;;;;4987284;28;8979;-87
2021/08/17 16:37:33;;;;;;;;;10.00;10.00;;;;;;;;4986012;28;8865;-88
2021/08/17 16:40:00;;;;;;;;;15.50;12.25;;;;;;;;4987090;28;8857;-87
2021/08/17 16:42:28;;;;;;;;;9.00;9.00;;;;;;;;4986666;28;8983;-89
2021/08/17 16:44:55;;;;;;;;;9.25;9.25;;;;;;;;4983132;28;8885;-90
2021/08/17 16:47:23;;;;;;;;;12.25;10.25;;;;;;;;4984052;28;8901;-89
2021/08/17 16:49:51;;;;;;;;;9.00;9.00;;;;;;;;4966099;28;10200;-84
2021/08/17 16:52:19;;;;;;;;;8.50;8.50;;;;;;;;4967576;28;8923;-86
2021/08/17 16:54:46;;;;;;;;;11.00;11.00;;;;;;;;4964156;28;8906;-88
2021/08/17 16:57:14;;;;;;;;;14.00;10.00;;;;;;;;4967276;28;9036;-86
2021/08/17 16:59:41;;;;;;;;;7.25;7.25;;;;;;;;4960628;28;8883;-89
2021/08/17 17:02:11;;;;;;;;;12.50;10.75;;;;;;;;4966608;28;8912;-86
2021/08/17 17:04:39;;;;;;;;;9.25;9.25;;;;;;;;4965979;28;8872;-88
2021/08/17 17:07:15;;;;;;;;;10.00;10.00;;;;;;;;4962562;28;8922;-89
2021/08/17 17:09:42;;;;;;;;;12.00;12.00;;;;;;;;4967084;28;8983;-89
2021/08/17 17:12:10;;;;;;;;;13.50;10.00;;;;;;;;4962956;28;8947;-89
2021/08/17 17:14:38;;;;;;;;;8.25;8.25;;;;;;;;4966573;28;8918;-88
2021/08/17 17:17:05;;;;;;;;;9.75;9.75;;;;;;;;4965546;28;8892;-88
2021/08/17 17:19:32;;;;;;;;;10.25;9.75;;;;;;;;4966401;28;8877;-89
2021/08/17 17:22:00;;;;;;;;;11.25;11.00;;;;;;;;4966295;28;9013;-89
2021/08/17 17:24:29;;;;;;;;;6.00;6.00;;;;;;;;4965083;28;8853;-90
2021/08/17 17:27:03;;;;;;;;;10.50;7.50;;;;;;;;4963854;28;8876;-88
2021/08/17 17:29:30;;;;;;;;;8.75;7.00;;;;;;;;4965732;28;9631;-89
2021/08/17 17:31:58;;;;;;;;;5.25;5.25;;;;;;;;4966441;28;9614;-88
2021/08/17 17:34:25;;;;;;;;;6.75;6.00;;;;;;;;4962146;28;8885;-90
2021/08/17 17:36:52;;;;;;;;;7.00;7.00;;;;;;;;4966943;28;8891;-87
2021/08/17 17:39:20;;;;;;;;;8.50;8.50;;;;;;;;4966397;28;8861;-89
2021/08/17 17:41:49;;;;;;;;;9.50;7.50;;;;;;;;4965792;28;8898;-84
2021/08/17 17:47:05;;;;;;;;;13.25;12.00;;;;;;;;5002987;23;8888;-88
2021/08/17 17:49:33;;;;;;;;;14.75;13.00;;;;;;;;4968667;28;8876;-84